ANA321 RJTT-RJNT
Flight info
| Callsign | ANA321 |
|---|---|
| Flight time | 0h 41m |
| Altitude | 36000 |
| Route | BEKLA3A BEKLA Y885 URUSI NANAO |
| Aircraft | B772/H-SDE2E3FGHIJ5LORVWXY/LB1D1 |
Departure
| Time | 2026-05-04 15:19 |
|---|---|
| Airport | Tokyo Haneda International Airport (RJTT) |
Arrival
| Time | 2026-05-04 16:00 |
|---|---|
| Airport | Toyama Kitokito Airport (RJNT) |
| Time | Latitude | Longitude | Altitude | Speed | Heading |
|---|---|---|---|---|---|
| 2026-05-04 14:59 | 35.55118 | 139.79199 | 4 ft | 0 kts | 60° |
| 2026-05-04 15:09 | 35.55114 | 139.79192 | 32 ft | 4 kts | 60° |
| 2026-05-04 15:10 | 35.55092 | 139.79141 | 32 ft | 4 kts | 91° |
| 2026-05-04 15:10 | 35.55101 | 139.79113 | 30 ft | 4 kts | 133° |
| 2026-05-04 15:10 | 35.55125 | 139.79088 | 31 ft | 3 kts | 150° |
| 2026-05-04 15:14 | 35.55121 | 139.79091 | 30 ft | 6 kts | 150° |
| 2026-05-04 15:14 | 35.55046 | 139.79158 | 33 ft | 14 kts | 118° |
| 2026-05-04 15:15 | 35.55049 | 139.79251 | 31 ft | 12 kts | 63° |
| 2026-05-04 15:15 | 35.55113 | 139.79383 | 29 ft | 16 kts | 59° |
| 2026-05-04 15:15 | 35.55108 | 139.79445 | 32 ft | 12 kts | 129° |
| 2026-05-04 15:16 | 35.54819 | 139.79656 | 30 ft | 29 kts | 150° |
| 2026-05-04 15:16 | 35.54645 | 139.79780 | 29 ft | 29 kts | 150° |
| 2026-05-04 15:16 | 35.54310 | 139.80016 | 29 ft | 15 kts | 150° |
| 2026-05-04 15:17 | 35.54215 | 139.80085 | 29 ft | 19 kts | 146° |
| 2026-05-04 15:17 | 35.54256 | 139.80280 | 32 ft | 9 kts | 43° |
| 2026-05-04 15:17 | 35.54319 | 139.80267 | 32 ft | 10 kts | 336° |
| 2026-05-04 15:18 | 35.54350 | 139.80245 | 31 ft | 0 kts | 329° |
| 2026-05-04 15:18 | 35.54403 | 139.80207 | 32 ft | 37 kts | 329° |
| 2026-05-04 15:19 | 35.55766 | 139.79282 | 689 ft | 145 kts | 332° |
| 2026-05-04 15:19 | 35.56647 | 139.78688 | 1929 ft | 144 kts | 331° |
| 2026-05-04 15:19 | 35.58808 | 139.78835 | 2808 ft | 201 kts | 26° |
| 2026-05-04 15:20 | 35.59961 | 139.79964 | 3097 ft | 222 kts | 30° |
| 2026-05-04 15:20 | 35.61209 | 139.81170 | 3560 ft | 235 kts | 31° |
| 2026-05-04 15:20 | 35.62550 | 139.82445 | 3990 ft | 254 kts | 31° |
| 2026-05-04 15:20 | 35.63971 | 139.83787 | 4549 ft | 265 kts | 31° |
| 2026-05-04 15:21 | 35.65585 | 139.84842 | 4976 ft | 264 kts | 7° |
| 2026-05-04 15:21 | 35.67405 | 139.85206 | 5526 ft | 269 kts | 2° |
| 2026-05-04 15:21 | 35.71105 | 139.85110 | 6687 ft | 266 kts | 325° |
| 2026-05-04 15:22 | 35.72598 | 139.83821 | 7339 ft | 264 kts | 318° |
| 2026-05-04 15:22 | 35.74096 | 139.82471 | 8097 ft | 267 kts | 318° |
| 2026-05-04 15:22 | 35.75893 | 139.78780 | 9531 ft | 258 kts | 275° |
| 2026-05-04 15:23 | 35.76101 | 139.76591 | 10356 ft | 260 kts | 274° |
| 2026-05-04 15:23 | 35.76326 | 139.74299 | 10768 ft | 283 kts | 274° |
| 2026-05-04 15:23 | 35.76634 | 139.71776 | 10960 ft | 314 kts | 279° |
| 2026-05-04 15:23 | 35.77248 | 139.69087 | 11481 ft | 334 kts | 284° |
| 2026-05-04 15:24 | 35.78713 | 139.63608 | 13826 ft | 339 kts | 283° |
| 2026-05-04 15:24 | 35.80147 | 139.58008 | 15866 ft | 348 kts | 282° |
| 2026-05-04 15:25 | 35.80874 | 139.55142 | 16783 ft | 354 kts | 281° |
| 2026-05-04 15:25 | 35.81604 | 139.52229 | 17704 ft | 358 kts | 281° |
| 2026-05-04 15:25 | 35.82338 | 139.49278 | 18598 ft | 361 kts | 281° |
| 2026-05-04 15:26 | 35.82979 | 139.43252 | 20281 ft | 355 kts | 265° |
| 2026-05-04 15:26 | 35.82971 | 139.40195 | 21075 ft | 358 kts | 265° |
| 2026-05-04 15:26 | 35.83035 | 139.34016 | 22722 ft | 363 kts | 266° |
| 2026-05-04 15:27 | 35.83084 | 139.30896 | 23521 ft | 365 kts | 266° |
| 2026-05-04 15:27 | 35.83182 | 139.24630 | 24761 ft | 370 kts | 265° |
| 2026-05-04 15:28 | 35.83487 | 139.18252 | 25743 ft | 385 kts | 275° |
| 2026-05-04 15:28 | 35.84322 | 139.15019 | 25870 ft | 397 kts | 284° |
| 2026-05-04 15:28 | 35.87204 | 139.09173 | 25903 ft | 400 kts | 291° |
| 2026-05-04 15:29 | 35.88734 | 139.06307 | 25906 ft | 400 kts | 292° |
| 2026-05-04 15:30 | 35.94848 | 138.94725 | 25927 ft | 404 kts | 291° |
| 2026-05-04 15:30 | 35.99394 | 138.86024 | 25914 ft | 398 kts | 291° |
| 2026-05-04 15:31 | 36.02373 | 138.80272 | 25937 ft | 398 kts | 291° |
| 2026-05-04 15:31 | 36.03370 | 138.78354 | 25974 ft | 398 kts | 291° |
| 2026-05-04 15:32 | 36.07846 | 138.69717 | 25954 ft | 400 kts | 291° |
| 2026-05-04 15:32 | 36.10847 | 138.63902 | 25944 ft | 399 kts | 291° |
| 2026-05-04 15:33 | 36.13834 | 138.58107 | 25984 ft | 400 kts | 291° |
| 2026-05-04 15:34 | 36.18292 | 138.49399 | 25977 ft | 399 kts | 291° |
| 2026-05-04 15:34 | 36.19779 | 138.46494 | 25973 ft | 399 kts | 291° |
| 2026-05-04 15:34 | 36.22742 | 138.40709 | 25990 ft | 397 kts | 291° |
| 2026-05-04 15:35 | 36.25702 | 138.34927 | 26006 ft | 398 kts | 291° |
| 2026-05-04 15:35 | 36.27188 | 138.32039 | 26002 ft | 397 kts | 291° |
| 2026-05-04 15:35 | 36.28677 | 138.29147 | 25997 ft | 397 kts | 291° |
| 2026-05-04 15:36 | 36.31636 | 138.23367 | 25998 ft | 396 kts | 291° |
| 2026-05-04 15:36 | 36.33089 | 138.20517 | 26007 ft | 396 kts | 291° |
| 2026-05-04 15:36 | 36.34561 | 138.17625 | 26027 ft | 396 kts | 291° |
| 2026-05-04 15:37 | 36.36032 | 138.14728 | 26016 ft | 395 kts | 291° |
| 2026-05-04 15:37 | 36.37498 | 138.11840 | 26023 ft | 395 kts | 291° |
| 2026-05-04 15:37 | 36.38963 | 138.08952 | 26016 ft | 395 kts | 291° |
| 2026-05-04 15:37 | 36.40425 | 138.06069 | 26017 ft | 394 kts | 291° |
| 2026-05-04 15:38 | 36.41889 | 138.03180 | 26030 ft | 395 kts | 291° |
| 2026-05-04 15:38 | 36.43352 | 138.00290 | 26003 ft | 396 kts | 291° |
| 2026-05-04 15:38 | 36.44817 | 137.97389 | 26020 ft | 396 kts | 290° |
| 2026-05-04 15:38 | 36.46282 | 137.94479 | 26038 ft | 397 kts | 291° |
| 2026-05-04 15:39 | 36.47748 | 137.91568 | 26033 ft | 396 kts | 290° |
| 2026-05-04 15:39 | 36.49140 | 137.88630 | 26044 ft | 393 kts | 288° |
| 2026-05-04 15:39 | 36.51754 | 137.82662 | 26046 ft | 393 kts | 288° |
| 2026-05-04 15:40 | 36.53048 | 137.79671 | 26071 ft | 392 kts | 288° |
| 2026-05-04 15:40 | 36.54345 | 137.76682 | 26086 ft | 392 kts | 288° |
| 2026-05-04 15:40 | 36.55640 | 137.73708 | 26073 ft | 389 kts | 288° |
| 2026-05-04 15:40 | 36.56908 | 137.70791 | 26077 ft | 388 kts | 288° |
| 2026-05-04 15:41 | 36.58197 | 137.67851 | 26074 ft | 387 kts | 288° |
| 2026-05-04 15:41 | 36.59492 | 137.64911 | 26064 ft | 387 kts | 288° |
| 2026-05-04 15:41 | 36.60779 | 137.61977 | 26073 ft | 386 kts | 288° |
| 2026-05-04 15:41 | 36.62063 | 137.59037 | 26103 ft | 386 kts | 288° |
| 2026-05-04 15:42 | 36.63336 | 137.56095 | 26073 ft | 387 kts | 288° |
| 2026-05-04 15:42 | 36.64622 | 137.53145 | 26111 ft | 388 kts | 288° |
| 2026-05-04 15:42 | 36.65896 | 137.50231 | 25790 ft | 371 kts | 288° |
| 2026-05-04 15:42 | 36.67104 | 137.47479 | 24559 ft | 357 kts | 288° |
| 2026-05-04 15:43 | 36.68279 | 137.44743 | 23279 ft | 365 kts | 288° |
| 2026-05-04 15:43 | 36.69501 | 137.41858 | 22925 ft | 393 kts | 290° |
| 2026-05-04 15:43 | 36.70777 | 137.38925 | 22767 ft | 378 kts | 290° |
| 2026-05-04 15:43 | 36.72038 | 137.36055 | 22614 ft | 369 kts | 290° |
| 2026-05-04 15:44 | 36.73246 | 137.33289 | 22106 ft | 363 kts | 290° |
| 2026-05-04 15:44 | 36.74440 | 137.30528 | 21617 ft | 362 kts | 290° |
| 2026-05-04 15:44 | 36.75633 | 137.27759 | 21129 ft | 361 kts | 291° |
| 2026-05-04 15:44 | 36.76818 | 137.25008 | 20695 ft | 360 kts | 291° |
| 2026-05-04 15:45 | 36.77990 | 137.22293 | 20157 ft | 349 kts | 291° |
| 2026-05-04 15:45 | 36.79123 | 137.19674 | 19333 ft | 333 kts | 291° |
| 2026-05-04 15:45 | 36.80193 | 137.17206 | 18680 ft | 311 kts | 291° |
| 2026-05-04 15:45 | 36.81370 | 137.14996 | 17965 ft | 312 kts | 306° |
| 2026-05-04 15:46 | 36.83077 | 137.13206 | 17321 ft | 329 kts | 317° |
| 2026-05-04 15:46 | 36.85152 | 137.11892 | 16632 ft | 338 kts | 333° |
| 2026-05-04 15:46 | 36.87401 | 137.11090 | 15937 ft | 332 kts | 336° |
| 2026-05-04 15:46 | 36.89600 | 137.10351 | 15206 ft | 323 kts | 336° |
| 2026-05-04 15:47 | 36.91743 | 137.09620 | 14501 ft | 315 kts | 337° |
| 2026-05-04 15:47 | 36.93831 | 137.08898 | 13766 ft | 307 kts | 338° |
| 2026-05-04 15:47 | 36.95856 | 137.08191 | 12955 ft | 297 kts | 338° |
| 2026-05-04 15:47 | 36.97820 | 137.07493 | 12150 ft | 285 kts | 338° |
| 2026-05-04 15:48 | 36.99673 | 137.06830 | 11367 ft | 271 kts | 339° |
| 2026-05-04 15:48 | 37.01449 | 137.06191 | 10603 ft | 261 kts | 339° |
| 2026-05-04 15:48 | 37.04983 | 137.05556 | 9124 ft | 265 kts | 9° |
| 2026-05-04 15:49 | 37.06672 | 137.06514 | 8810 ft | 276 kts | 29° |
| 2026-05-04 15:49 | 37.08149 | 137.08070 | 8814 ft | 285 kts | 38° |
| 2026-05-04 15:49 | 37.09568 | 137.09807 | 8804 ft | 285 kts | 39° |
| 2026-05-04 15:49 | 37.10823 | 137.11718 | 8786 ft | 291 kts | 58° |
| 2026-05-04 15:50 | 37.11299 | 137.14242 | 8799 ft | 303 kts | 85° |
| 2026-05-04 15:50 | 37.11254 | 137.16923 | 8253 ft | 313 kts | 89° |
| 2026-05-04 15:50 | 37.11187 | 137.19636 | 7840 ft | 303 kts | 88° |
| 2026-05-04 15:50 | 37.11129 | 137.22205 | 7334 ft | 289 kts | 89° |
| 2026-05-04 15:51 | 37.10767 | 137.24617 | 6920 ft | 279 kts | 114° |
| 2026-05-04 15:51 | 37.09644 | 137.26522 | 6648 ft | 267 kts | 135° |
| 2026-05-04 15:51 | 37.08316 | 137.28174 | 6369 ft | 273 kts | 135° |
| 2026-05-04 15:51 | 37.06967 | 137.29877 | 5746 ft | 280 kts | 139° |
| 2026-05-04 15:52 | 37.05293 | 137.31003 | 5189 ft | 271 kts | 172° |
| 2026-05-04 15:52 | 37.03440 | 137.30941 | 4840 ft | 265 kts | 195° |
| 2026-05-04 15:52 | 37.01652 | 137.30386 | 4489 ft | 264 kts | 198° |
| 2026-05-04 15:52 | 36.99870 | 137.29816 | 4171 ft | 264 kts | 198° |
| 2026-05-04 15:53 | 36.98084 | 137.29241 | 3781 ft | 267 kts | 197° |
| 2026-05-04 15:53 | 36.96314 | 137.28674 | 3731 ft | 255 kts | 197° |
| 2026-05-04 15:53 | 36.94625 | 137.28135 | 3753 ft | 248 kts | 197° |
| 2026-05-04 15:53 | 36.92933 | 137.27594 | 3792 ft | 254 kts | 197° |
| 2026-05-04 15:54 | 36.91202 | 137.27042 | 3800 ft | 257 kts | 197° |
| 2026-05-04 15:54 | 36.89470 | 137.26492 | 3798 ft | 256 kts | 197° |
| 2026-05-04 15:54 | 36.87752 | 137.25948 | 3794 ft | 255 kts | 197° |
| 2026-05-04 15:54 | 36.86050 | 137.25412 | 3727 ft | 247 kts | 197° |
| 2026-05-04 15:55 | 36.84414 | 137.24898 | 3411 ft | 235 kts | 197° |
| 2026-05-04 15:55 | 36.82908 | 137.24416 | 3214 ft | 210 kts | 197° |
| 2026-05-04 15:55 | 36.81567 | 137.23986 | 3073 ft | 189 kts | 195° |
| 2026-05-04 15:55 | 36.80337 | 137.23593 | 2879 ft | 176 kts | 195° |
| 2026-05-04 15:56 | 36.79163 | 137.23211 | 2755 ft | 174 kts | 197° |
| 2026-05-04 15:56 | 36.77986 | 137.22821 | 2528 ft | 175 kts | 196° |
| 2026-05-04 15:56 | 36.76839 | 137.22445 | 2272 ft | 164 kts | 195° |
| 2026-05-04 15:56 | 36.75786 | 137.22103 | 2046 ft | 151 kts | 194° |
| 2026-05-04 15:57 | 36.74825 | 137.21790 | 1886 ft | 135 kts | 195° |
| 2026-05-04 15:57 | 36.73914 | 137.21492 | 1737 ft | 136 kts | 194° |
| 2026-05-04 15:57 | 36.72984 | 137.21207 | 1542 ft | 137 kts | 194° |
| 2026-05-04 15:57 | 36.72076 | 137.20928 | 1357 ft | 134 kts | 194° |
| 2026-05-04 15:58 | 36.71185 | 137.20654 | 1166 ft | 131 kts | 193° |
| 2026-05-04 15:58 | 36.70288 | 137.20385 | 992 ft | 134 kts | 192° |
| 2026-05-04 15:58 | 36.69377 | 137.20117 | 798 ft | 136 kts | 193° |
| 2026-05-04 15:58 | 36.68483 | 137.19827 | 641 ft | 133 kts | 194° |
| 2026-05-04 15:59 | 36.67577 | 137.19557 | 508 ft | 134 kts | 193° |
| 2026-05-04 15:59 | 36.66655 | 137.19289 | 292 ft | 135 kts | 191° |
| 2026-05-04 15:59 | 36.65764 | 137.19020 | 118 ft | 129 kts | 191° |
| 2026-05-04 15:59 | 36.64929 | 137.18770 | 67 ft | 112 kts | 194° |
| 2026-05-04 16:00 | 36.64428 | 137.18618 | 84 ft | 43 kts | 193° |
| 2026-05-04 16:00 | 36.64166 | 137.18543 | 82 ft | 26 kts | 192° |
| 2026-05-04 16:00 | 36.64042 | 137.18513 | 83 ft | 14 kts | 191° |
| 2026-05-04 16:00 | 36.64026 | 137.18509 | 86 ft | 0 kts | 190° |
| 2026-05-04 16:01 | 36.64019 | 137.18509 | 83 ft | 1 kts | 190° |
| 2026-05-04 16:01 | 36.64008 | 137.18501 | 86 ft | 7 kts | 210° |
| 2026-05-04 16:01 | 36.63998 | 137.18471 | 86 ft | 2 kts | 296° |
| 2026-05-04 16:02 | 36.64035 | 137.18476 | 84 ft | 6 kts | 24° |
| 2026-05-04 16:02 | 36.64084 | 137.18511 | 83 ft | 10 kts | 24° |
| 2026-05-04 16:02 | 36.64243 | 137.18563 | 83 ft | 18 kts | 13° |
| 2026-05-04 16:03 | 36.64367 | 137.18599 | 82 ft | 15 kts | 16° |
| 2026-05-04 16:03 | 36.64408 | 137.18671 | 84 ft | 10 kts | 91° |
| 2026-05-04 16:03 | 36.64402 | 137.18713 | 82 ft | 2 kts | 102° |
| 2026-05-04 16:03 | 36.64393 | 137.18728 | 84 ft | 3 kts | 138° |
| 2026-05-04 16:04 | 36.64346 | 137.18742 | 83 ft | 9 kts | 163° |
| 2026-05-04 16:04 | 36.64320 | 137.18786 | 83 ft | 2 kts | 127° |
| 2026-05-04 16:04 | 36.64315 | 137.18793 | 84 ft | 1 kts | 128° |
| 2026-05-04 16:05 | 36.64311 | 137.18799 | 83 ft | 0 kts | 128° |
| 2026-05-04 16:05 | 36.64309 | 137.18802 | 82 ft | 0 kts | 128° |
| 2026-05-04 16:05 | 36.64309 | 137.18803 | 82 ft | 0 kts | 128° |